createdAt,value
2022-09-04T00:00:01.835Z,96621.50
2022-09-04T00:05:23.088Z,96616.94
2022-09-04T00:10:53.963Z,96614.31
2022-09-04T00:16:10.722Z,96625.59
2022-09-04T00:21:26.545Z,96634.25
2022-09-04T00:26:40.201Z,96635.81
2022-09-04T00:31:54.541Z,96638.19
2022-09-04T00:37:04.771Z,96637.19
2022-09-04T00:42:43.846Z,96630.03
2022-09-04T00:48:32.194Z,96655.06
2022-09-04T00:53:53.198Z,96665.81
2022-09-04T00:59:26.783Z,96660.66
2022-09-04T01:04:48.888Z,96657.03
2022-09-04T01:10:40.574Z,96671.34
2022-09-04T01:16:01.884Z,96663.28
2022-09-04T01:21:17.315Z,96677.25
2022-09-04T01:26:48.057Z,96684.00
2022-09-04T01:31:57.832Z,96672.06
2022-09-04T01:37:25.464Z,96669.22
2022-09-04T01:42:44.542Z,96651.50
2022-09-04T01:47:55.525Z,96664.22
2022-09-04T01:53:12.029Z,96669.63
2022-09-04T01:58:43.705Z,96660.41
2022-09-04T02:04:18.459Z,96666.06
2022-09-04T02:09:38.330Z,96656.91
2022-09-04T02:15:31.144Z,96656.41
2022-09-04T02:20:34.288Z,96654.38
2022-09-04T02:25:50.295Z,96655.81
2022-09-04T02:31:12.898Z,96659.19
2022-09-04T02:36:39.935Z,96665.81
2022-09-04T02:41:58.494Z,96658.44
2022-09-04T02:47:20.574Z,96667.03
2022-09-04T02:52:59.830Z,96664.97
2022-09-04T02:58:29.465Z,96660.88
2022-09-04T03:03:44.981Z,96643.31
2022-09-04T03:08:53.770Z,96665.31
2022-09-04T03:14:05.465Z,96664.47
2022-09-04T03:19:25.612Z,96658.59
2022-09-04T03:24:45.744Z,96651.13
2022-09-04T03:30:10.917Z,96654.38
2022-09-04T03:35:26.132Z,96644.28
2022-09-04T03:40:50.441Z,96643.56
2022-09-04T03:46:14.046Z,96650.88
2022-09-04T03:51:26.089Z,96660.28
2022-09-04T03:56:50.145Z,96661.09
2022-09-04T04:02:01.537Z,96659.66
2022-09-04T04:07:28.469Z,96656.06
2022-09-04T04:12:53.580Z,96643.06
2022-09-04T04:18:27.838Z,96672.16
2022-09-04T04:23:41.384Z,96666.16
2022-09-04T04:29:09.183Z,96678.69
2022-09-04T04:34:22.465Z,96668.72
2022-09-04T04:40:10.519Z,96691.72
2022-09-04T04:45:40.423Z,96689.31
2022-09-04T04:51:00.885Z,96694.88
2022-09-04T04:56:33.396Z,96701.44
2022-09-04T05:01:56.603Z,96707.09
2022-09-04T05:07:06.703Z,96687.38
2022-09-04T05:12:31.247Z,96728.81
2022-09-04T05:17:48.112Z,96714.53
2022-09-04T05:23:16.811Z,96695.72
2022-09-04T05:28:40.568Z,96724.25
2022-09-04T05:33:57.311Z,96727.25
2022-09-04T05:39:11.941Z,96734.44
2022-09-04T05:44:38.235Z,96757.22
2022-09-04T05:50:06.826Z,96765.22
2022-09-04T05:55:21.568Z,96766.09
2022-09-04T06:00:24.211Z,96749.78
2022-09-04T06:05:45.553Z,96761.38
2022-09-04T06:11:29.069Z,96769.94
2022-09-04T06:17:00.877Z,96766.28
2022-09-04T06:22:35.028Z,96760.53
2022-09-04T06:28:07.490Z,96767.97
2022-09-04T06:33:22.155Z,96761.59
2022-09-04T06:38:42.951Z,96773.53
2022-09-04T06:44:29.129Z,96780.69
2022-09-04T06:49:49.687Z,96773.53
2022-09-04T06:55:28.975Z,96767.41
2022-09-04T07:00:45.239Z,96782.31
2022-09-04T07:06:05.335Z,96785.22
2022-09-04T07:11:36.659Z,96751.59
2022-09-04T07:16:51.697Z,96724.13
2022-09-04T07:22:04.207Z,96739.50
2022-09-04T07:27:20.089Z,96708.69
2022-09-04T07:32:39.570Z,96759.97
2022-09-04T07:38:00.124Z,96748.41
2022-09-04T07:43:24.243Z,96761.41
2022-09-04T07:48:32.551Z,96746.97
2022-09-04T08:00:35.837Z,96702.91
2022-09-04T08:06:11.941Z,96705.03
2022-09-04T08:11:48.720Z,96743.84
2022-09-04T08:17:33.480Z,96731.59
2022-09-04T08:23:06.673Z,96745.03
2022-09-04T08:28:25.467Z,96751.34
2022-09-04T08:33:56.976Z,96754.56
2022-09-04T08:39:02.266Z,96754.13
2022-09-04T08:44:37.376Z,96726.81
2022-09-04T08:49:58.569Z,96751.97
2022-09-04T08:55:09.753Z,96755.13
2022-09-04T09:00:22.577Z,96754.78
2022-09-04T09:05:43.305Z,96780.75
2022-09-04T09:10:54.737Z,96792.47
2022-09-04T09:16:19.121Z,96787.31
2022-09-04T09:21:58.918Z,96798.91
2022-09-04T09:27:34.756Z,96807.47
2022-09-04T09:33:30.923Z,96811.00
2022-09-04T09:38:51.905Z,96814.06
2022-09-04T09:44:01.135Z,96808.66
2022-09-04T09:49:33.591Z,96795.03
2022-09-04T09:54:55.649Z,96821.69
2022-09-04T10:00:07.284Z,96809.16
2022-09-04T10:05:49.941Z,96812.91
2022-09-04T10:11:01.427Z,96823.97
2022-09-04T10:16:35.477Z,96806.66
2022-09-04T10:22:04.436Z,96812.09
2022-09-04T10:27:31.382Z,96817.59
2022-09-04T10:32:33.633Z,96811.94
2022-09-04T10:38:00.848Z,96794.72
2022-09-04T10:43:20.379Z,96763.25
2022-09-04T10:48:51.679Z,96776.75
2022-09-04T10:54:15.062Z,96772.66
2022-09-04T11:00:05.724Z,96739.34
2022-09-04T11:05:23.328Z,96744.00
2022-09-04T11:11:07.039Z,96743.50
2022-09-04T11:16:37.039Z,96744.16
2022-09-04T11:22:20.135Z,96746.63
2022-09-04T11:27:39.189Z,96733.44
2022-09-04T11:33:18.893Z,96744.31
2022-09-04T11:38:51.321Z,96747.66
2022-09-04T11:44:15.326Z,96744.97
2022-09-04T11:49:41.974Z,96736.13
2022-09-04T11:55:02.458Z,96744.47
2022-09-04T12:00:12.774Z,96747.84
2022-09-04T12:05:40.431Z,96743.00
2022-09-04T12:11:32.183Z,96723.38
2022-09-04T12:16:54.510Z,96734.75
2022-09-04T12:22:19.361Z,96728.97
2022-09-04T12:27:59.390Z,96732.13
2022-09-04T12:33:30.488Z,96713.97
2022-09-04T12:38:54.614Z,96729.75
2022-09-04T12:44:34.985Z,96716.13
2022-09-04T12:49:59.092Z,96709.19
2022-09-04T12:55:09.297Z,96716.69
2022-09-04T13:00:15.470Z,96698.78
2022-09-04T13:05:41.859Z,96707.50
2022-09-04T13:11:19.244Z,96679.22
2022-09-04T13:16:27.737Z,96724.16
2022-09-04T13:21:52.016Z,96722.31
2022-09-04T13:27:03.926Z,96731.22
2022-09-04T13:32:20.824Z,96725.75
2022-09-04T13:37:34.396Z,96730.59
2022-09-04T13:42:55.414Z,96697.19
2022-09-04T13:48:17.262Z,96719.34
2022-09-04T13:53:52.001Z,96721.59
2022-09-04T13:59:00.573Z,96712.94
2022-09-04T14:04:11.607Z,96717.69
2022-09-04T14:09:16.337Z,96682.66
2022-09-04T14:14:31.071Z,96702.28
2022-09-04T14:19:57.591Z,96727.00
2022-09-04T14:25:30.727Z,96721.59
2022-09-04T14:30:55.976Z,96720.09
2022-09-04T14:36:10.442Z,96731.84
2022-09-04T14:41:35.845Z,96741.47
2022-09-04T14:47:03.763Z,96739.41
2022-09-04T14:52:19.930Z,96742.88
2022-09-04T14:57:38.116Z,96723.22
2022-09-04T15:02:52.077Z,96708.94
2022-09-04T15:08:01.585Z,96695.88
2022-09-04T15:13:28.324Z,96723.66
2022-09-04T15:18:55.580Z,96712.00
2022-09-04T15:24:26.341Z,96727.31
2022-09-04T15:29:54.254Z,96733.19
2022-09-04T15:35:17.574Z,96733.34
2022-09-04T15:40:32.217Z,96740.31
2022-09-04T15:45:46.048Z,96720.94
2022-09-04T15:51:05.085Z,96702.47
2022-09-04T15:56:29.578Z,96742.34
2022-09-04T16:01:48.770Z,96737.88
2022-09-04T16:07:06.688Z,96742.34
2022-09-04T16:12:28.149Z,96743.59
2022-09-04T16:17:39.296Z,96736.19
2022-09-04T16:22:54.702Z,96740.66
2022-09-04T16:28:08.646Z,96727.88
2022-09-04T16:33:27.755Z,96740.31
2022-09-04T16:38:40.880Z,96752.28
2022-09-04T16:44:17.052Z,96753.41
2022-09-04T16:49:47.539Z,96752.47
2022-09-04T16:55:14.641Z,96748.34
2022-09-04T17:00:24.310Z,96739.97
2022-09-04T17:06:03.193Z,96762.41
2022-09-04T17:11:36.704Z,96792.53
2022-09-04T17:17:30.169Z,96787.28
2022-09-04T17:28:53.956Z,96797.88
2022-09-04T17:29:18.798Z,96809.88
2022-09-04T17:40:26.387Z,96823.50
2022-09-04T17:41:31.138Z,96832.06
2022-09-04T17:45:02.848Z,96815.31
2022-09-04T17:50:14.164Z,96836.94
2022-09-04T17:55:16.608Z,96832.59
2022-09-04T18:00:24.265Z,96825.13
2022-09-04T18:05:52.978Z,96854.56
2022-09-04T18:11:25.706Z,96865.72
2022-09-04T18:16:37.084Z,96859.00
2022-09-04T18:21:50.233Z,96856.00
2022-09-04T18:27:23.497Z,96847.31
2022-09-04T18:37:12.870Z,96858.94
2022-09-04T18:38:27.652Z,96864.16
2022-09-04T18:50:40.966Z,96880.66
2022-09-04T18:50:50.079Z,96873.28
2022-09-04T18:54:42.309Z,96875.63
2022-09-04T18:59:47.014Z,96873.59
2022-09-04T19:05:11.739Z,96871.91
2022-09-04T19:10:35.948Z,96871.25
2022-09-04T19:15:50.339Z,96856.66
2022-09-04T19:21:03.348Z,96857.50
2022-09-04T19:26:35.131Z,96878.47
2022-09-04T19:32:01.875Z,96870.69
2022-09-04T19:41:07.879Z,96873.31
2022-09-04T19:46:12.082Z,96873.69
2022-09-04T19:48:39.981Z,96880.09
2022-09-04T19:54:12.027Z,96890.94
2022-09-04T19:59:29.525Z,96889.84
2022-09-04T20:04:44.108Z,96889.06
2022-09-04T20:09:56.869Z,96900.97
2022-09-04T20:15:15.154Z,96898.03
2022-09-04T20:20:25.198Z,96880.50
2022-09-04T20:25:42.609Z,96878.75
2022-09-04T20:31:01.349Z,96890.09
2022-09-04T20:36:12.867Z,96902.72
2022-09-04T20:41:35.483Z,96887.94
2022-09-04T20:50:20.087Z,96882.31
2022-09-04T20:52:50.938Z,96904.72
2022-09-04T21:00:16.837Z,96899.56
2022-09-04T21:03:43.212Z,96901.06
2022-09-04T21:09:22.908Z,96912.13
2022-09-04T21:14:45.042Z,96897.50
2022-09-04T21:20:00.885Z,96914.56
2022-09-04T21:25:36.679Z,96903.84
2022-09-04T21:30:59.616Z,96909.66
2022-09-04T21:36:27.003Z,96907.13
2022-09-04T21:41:29.681Z,96893.94
2022-09-04T21:47:16.859Z,96906.66
2022-09-04T21:53:00.641Z,96885.75
2022-09-04T22:02:30.373Z,96888.38
2022-09-04T22:04:42.320Z,96874.44
2022-09-04T22:13:33.047Z,96881.59
2022-09-04T22:15:59.095Z,96879.09
2022-09-04T22:21:10.455Z,96868.19
2022-09-04T22:26:43.529Z,96887.75
2022-09-04T22:32:03.180Z,96885.72
2022-09-04T22:37:29.436Z,96884.09
2022-09-04T22:42:56.302Z,96891.28
2022-09-04T22:48:31.500Z,96872.81
2022-09-04T22:53:52.483Z,96889.28
2022-09-04T22:59:27.467Z,96893.38
2022-09-04T23:04:32.923Z,96896.00
2022-09-04T23:13:46.986Z,96907.50
2022-09-04T23:15:36.090Z,96892.00
2022-09-04T23:24:42.450Z,96876.38
2022-09-04T23:27:01.651Z,96899.78
2022-09-04T23:32:26.745Z,96907.06
2022-09-04T23:37:38.478Z,96919.63
2022-09-04T23:43:07.712Z,96915.00
2022-09-04T23:48:35.071Z,96916.31
2022-09-04T23:54:24.780Z,96911.44
2022-09-04T23:59:35.985Z,96917.16
